Time,TemperatureF,DewpointF,PressureIn,WindDirection,WindDirectionDegrees,WindSpeedMPH,WindSpeedGustMPH,Humidity,HourlyPrecipIn,Conditions,Clouds,dailyrainin,SolarRadiationWatts/m^2,SoftwareType,DateUTC
2013-04-22 00:01:00,73.0,24.0,-100.00,SE,144,6.0,8.0,16,0.00,,,-99.99,1.000000,,2013-04-22 07:01:00,
2013-04-22 00:11:00,73.0,24.0,-100.00,SE,144,6.0,8.0,16,0.00,,,-99.99,1.000000,,2013-04-22 07:11:00,
2013-04-22 00:42:00,70.0,26.0,-100.00,SE,137,6.0,7.0,19,0.00,,,0.00,1.000000,,2013-04-22 07:42:00,
2013-04-22 00:52:00,70.0,26.0,-100.00,SE,137,6.0,7.0,19,0.00,,,0.00,1.000000,,2013-04-22 07:52:00,
2013-04-22 01:01:00,70.0,26.0,-100.00,SE,137,6.0,7.0,19,0.00,,,0.00,1.000000,,2013-04-22 08:01:00,
2013-04-22 01:11:00,70.0,26.0,-100.00,SE,137,6.0,7.0,19,0.00,,,0.00,1.000000,,2013-04-22 08:11:00,
2013-04-22 01:42:00,70.0,25.0,-100.00,ESE,120,9.0,12.0,18,0.00,,,0.00,1.000000,,2013-04-22 08:42:00,
2013-04-22 01:52:00,70.0,25.0,-100.00,ESE,120,9.0,12.0,18,0.00,,,0.00,1.000000,,2013-04-22 08:52:00,
2013-04-22 02:01:00,70.0,25.0,-100.00,ESE,120,9.0,12.0,18,0.00,,,0.00,1.000000,,2013-04-22 09:01:00,
2013-04-22 02:11:00,70.0,25.0,-100.00,ESE,120,9.0,12.0,18,0.00,,,0.00,1.000000,,2013-04-22 09:11:00,
2013-04-22 02:42:00,68.0,23.0,-100.00,SE,132,8.0,12.0,18,0.00,,,0.00,1.000000,,2013-04-22 09:42:00,
2013-04-22 02:52:00,68.0,23.0,-100.00,SE,132,8.0,12.0,18,0.00,,,0.00,1.000000,,2013-04-22 09:52:00,
2013-04-22 03:03:00,68.0,23.0,-100.00,SE,132,8.0,12.0,18,0.00,,,0.00,1.000000,,2013-04-22 10:03:00,
2013-04-22 03:12:00,68.0,23.0,-100.00,SE,132,8.0,12.0,18,0.00,,,0.00,1.000000,,2013-04-22 10:12:00,
2013-04-22 03:42:00,69.0,19.0,-100.00,SE,126,0.0,11.0,15,0.00,,,0.00,1.000000,,2013-04-22 10:42:00,
2013-04-22 03:52:00,69.0,19.0,-100.00,SE,126,0.0,11.0,15,0.00,,,0.00,1.000000,,2013-04-22 10:52:00,
2013-04-22 04:02:00,69.0,19.0,-100.00,SE,126,0.0,11.0,15,0.00,,,0.00,1.000000,,2013-04-22 11:02:00,
2013-04-22 04:42:00,70.0,19.0,-100.00,ENE,60,0.0,0.0,14,0.00,,,0.00,1.000000,,2013-04-22 11:42:00,
2013-04-22 05:42:00,66.0,20.0,-100.00,NE,43,0.0,0.0,17,0.00,,,0.00,1.000000,,2013-04-22 12:42:00,
2013-04-22 06:42:00,62.0,28.0,-100.00,North,1,2.0,3.0,27,0.00,,,-99.99,4.000000,,2013-04-22 13:42:00,
2013-04-22 06:53:00,62.0,28.0,-100.00,North,1,2.0,3.0,27,0.00,,,-99.99,4.000000,,2013-04-22 13:53:00,
2013-04-22 07:02:00,62.0,28.0,-100.00,North,1,2.0,3.0,27,0.00,,,-99.99,4.000000,,2013-04-22 14:02:00,
2013-04-22 07:11:00,62.0,28.0,-100.00,North,1,2.0,3.0,27,0.00,,,-99.99,4.000000,,2013-04-22 14:11:00,
2013-04-22 07:42:00,70.0,22.0,-100.00,SE,141,1.0,4.0,16,0.00,,,0.00,112.000000,,2013-04-22 14:42:00,
2013-04-22 07:52:00,70.0,22.0,-100.00,SE,141,1.0,4.0,16,0.00,,,0.00,112.000000,,2013-04-22 14:52:00,
2013-04-22 08:01:00,70.0,22.0,-100.00,SE,141,1.0,4.0,16,0.00,,,0.00,112.000000,,2013-04-22 15:01:00,
2013-04-22 08:11:00,70.0,22.0,-100.00,SE,141,1.0,4.0,16,0.00,,,0.00,112.000000,,2013-04-22 15:11:00,
2013-04-22 08:43:00,74.0,30.0,-100.00,SSE,157,9.0,12.0,20,0.00,,,0.00,327.000000,,2013-04-22 15:43:00,
2013-04-22 08:53:00,74.0,30.0,-100.00,SSE,157,9.0,12.0,20,0.00,,,0.00,327.000000,,2013-04-22 15:53:00,
2013-04-22 09:02:00,74.0,30.0,-100.00,SSE,157,9.0,12.0,20,0.00,,,0.00,327.000000,,2013-04-22 16:02:00,
2013-04-22 09:12:00,74.0,30.0,-100.00,SSE,157,9.0,12.0,20,0.00,,,0.00,327.000000,,2013-04-22 16:12:00,
2013-04-22 09:42:00,79.0,34.0,-100.00,SSE,160,8.0,14.0,20,0.00,,,0.00,546.000000,,2013-04-22 16:42:00,
2013-04-22 09:52:00,79.0,34.0,-100.00,SSE,160,8.0,14.0,20,0.00,,,0.00,546.000000,,2013-04-22 16:52:00,
2013-04-22 10:02:00,79.0,34.0,-100.00,SSE,160,8.0,14.0,20,0.00,,,0.00,546.000000,,2013-04-22 17:02:00,
2013-04-22 10:12:00,79.0,34.0,-100.00,SSE,160,8.0,14.0,20,0.00,,,0.00,546.000000,,2013-04-22 17:12:00,
2013-04-22 10:32:00,82.0,36.0,-100.00,South,178,12.0,16.0,19,0.00,,,0.00,749.000000,,2013-04-22 17:32:00,
2013-04-22 10:43:00,82.0,36.0,-100.00,South,178,12.0,16.0,19,0.00,,,0.00,749.000000,,2013-04-22 17:43:00,
2013-04-22 10:52:00,82.0,36.0,-100.00,South,178,12.0,16.0,19,0.00,,,0.00,749.000000,,2013-04-22 17:52:00,
2013-04-22 11:01:00,82.0,36.0,-100.00,South,178,12.0,16.0,19,0.00,,,0.00,749.000000,,2013-04-22 18:01:00,
2013-04-22 11:12:00,82.0,36.0,-100.00,South,178,12.0,16.0,19,0.00,,,0.00,749.000000,,2013-04-22 18:12:00,
2013-04-22 11:42:00,84.0,39.0,-100.00,South,174,9.0,16.0,20,0.00,,,0.00,909.000000,,2013-04-22 18:42:00,
2013-04-22 11:52:00,84.0,39.0,-100.00,South,174,9.0,16.0,20,0.00,,,0.00,909.000000,,2013-04-22 18:52:00,
2013-04-22 12:01:00,84.0,39.0,-100.00,South,174,9.0,16.0,20,0.00,,,0.00,909.000000,,2013-04-22 19:01:00,
2013-04-22 12:11:00,84.0,39.0,-100.00,South,174,9.0,16.0,20,0.00,,,0.00,909.000000,,2013-04-22 19:11:00,
2013-04-22 12:42:00,88.0,39.0,-100.00,South,179,10.0,16.0,18,0.00,,,0.00,1004.000000,,2013-04-22 19:42:00,
2013-04-22 12:52:00,88.0,39.0,-100.00,South,179,10.0,16.0,18,0.00,,,0.00,1004.000000,,2013-04-22 19:52:00,
2013-04-22 13:02:00,88.0,39.0,-100.00,South,179,10.0,16.0,18,0.00,,,0.00,1004.000000,,2013-04-22 20:02:00,
2013-04-22 13:11:00,88.0,39.0,-100.00,South,179,10.0,16.0,18,0.00,,,0.00,1004.000000,,2013-04-22 20:11:00,
2013-04-22 13:42:00,91.0,31.0,-100.00,South,189,9.0,17.0,12,0.00,,,-99.99,1032.000000,,2013-04-22 20:42:00,
2013-04-22 13:52:00,91.0,31.0,-100.00,South,189,9.0,17.0,12,0.00,,,-99.99,1032.000000,,2013-04-22 20:52:00,
2013-04-22 14:01:00,91.0,31.0,-100.00,South,189,9.0,17.0,12,0.00,,,-99.99,1032.000000,,2013-04-22 21:01:00,
2013-04-22 14:11:00,91.0,31.0,-100.00,South,189,9.0,17.0,12,0.00,,,-99.99,1032.000000,,2013-04-22 21:11:00,
2013-04-22 14:43:00,94.0,36.0,-100.00,South,178,8.0,15.0,13,0.00,,,0.00,990.000000,,2013-04-22 21:43:00,
2013-04-22 14:53:00,94.0,36.0,-100.00,South,178,8.0,15.0,13,0.00,,,0.00,990.000000,,2013-04-22 21:53:00,
2013-04-22 15:02:00,94.0,36.0,-100.00,South,178,8.0,15.0,13,0.00,,,0.00,990.000000,,2013-04-22 22:02:00,
2013-04-22 15:12:00,94.0,36.0,-100.00,South,178,8.0,15.0,13,0.00,,,0.00,990.000000,,2013-04-22 22:12:00,
2013-04-22 15:42:00,95.0,32.0,-100.00,SSW,208,10.0,19.0,11,0.00,,,0.00,884.000000,,2013-04-22 22:42:00,
2013-04-22 15:52:00,95.0,32.0,-100.00,SSW,208,10.0,19.0,11,0.00,,,0.00,884.000000,,2013-04-22 22:52:00,
2013-04-22 16:02:00,95.0,32.0,-100.00,SSW,208,10.0,19.0,11,0.00,,,0.00,884.000000,,2013-04-22 23:02:00,
2013-04-22 16:11:00,95.0,32.0,-100.00,SSW,208,10.0,19.0,11,0.00,,,0.00,884.000000,,2013-04-22 23:11:00,
2013-04-22 16:42:00,95.0,30.0,-100.00,SSW,201,9.0,17.0,10,0.00,,,0.00,717.000000,,2013-04-22 23:42:00,
2013-04-22 16:52:00,95.0,30.0,-100.00,SSW,201,9.0,17.0,10,0.00,,,0.00,717.000000,,2013-04-22 23:52:00,
2013-04-22 17:01:00,95.0,30.0,-100.00,SSW,201,9.0,17.0,10,0.00,,,0.00,717.000000,,2013-04-23 00:01:00,
2013-04-22 17:12:00,95.0,30.0,-100.00,SSW,201,9.0,17.0,10,0.00,,,0.00,717.000000,,2013-04-23 00:12:00,
2013-04-22 17:42:00,94.0,29.0,-100.00,SSW,207,10.0,18.0,10,0.00,,,0.00,507.000000,,2013-04-23 00:42:00,
2013-04-22 17:52:00,94.0,29.0,-100.00,SSW,207,10.0,18.0,10,0.00,,,0.00,507.000000,,2013-04-23 00:52:00,
2013-04-22 18:01:00,94.0,29.0,-100.00,SSW,207,10.0,18.0,10,0.00,,,0.00,507.000000,,2013-04-23 01:01:00,
2013-04-22 18:11:00,94.0,29.0,-100.00,SSW,207,10.0,18.0,10,0.00,,,0.00,507.000000,,2013-04-23 01:11:00,
2013-04-22 18:42:00,87.0,49.0,-100.00,WSW,247,8.0,14.0,27,0.00,,,0.00,280.000000,,2013-04-23 01:42:00,
2013-04-22 18:52:00,87.0,49.0,-100.00,WSW,247,8.0,14.0,27,0.00,,,0.00,280.000000,,2013-04-23 01:52:00,
2013-04-22 19:42:00,80.0,51.0,-100.00,West,273,4.0,9.0,36,0.00,,,0.00,63.000000,,2013-04-23 02:42:00,
2013-04-22 19:52:00,80.0,51.0,-100.00,West,273,4.0,9.0,36,0.00,,,0.00,63.000000,,2013-04-23 02:52:00,
2013-04-22 20:43:00,80.0,34.0,-100.00,South,177,6.0,12.0,19,0.00,,,0.00,2.000000,,2013-04-23 03:43:00,
2013-04-22 20:53:00,80.0,34.0,-100.00,South,177,6.0,12.0,19,0.00,,,0.00,2.000000,,2013-04-23 03:53:00,
2013-04-22 21:03:00,80.0,34.0,-100.00,South,177,6.0,12.0,19,0.00,,,0.00,2.000000,,2013-04-23 04:03:00,
2013-04-22 21:12:00,80.0,34.0,-100.00,South,177,6.0,12.0,19,0.00,,,0.00,2.000000,,2013-04-23 04:12:00,
2013-04-22 21:44:00,75.0,34.0,-100.00,South,179,9.0,11.0,22,0.00,,,0.00,1.000000,,2013-04-23 04:44:00,
2013-04-22 21:53:00,75.0,34.0,-100.00,South,179,9.0,11.0,22,0.00,,,0.00,1.000000,,2013-04-23 04:53:00,
2013-04-22 22:02:00,75.0,34.0,-100.00,South,179,9.0,11.0,22,0.00,,,0.00,1.000000,,2013-04-23 05:02:00,
2013-04-22 22:12:00,75.0,34.0,-100.00,South,179,9.0,11.0,22,0.00,,,0.00,1.000000,,2013-04-23 05:12:00,
2013-04-22 22:42:00,71.0,34.0,-100.00,SSW,206,6.0,11.0,26,0.00,,,0.00,1.000000,,2013-04-23 05:42:00,
2013-04-22 22:52:00,71.0,34.0,-100.00,SSW,206,6.0,11.0,26,0.00,,,0.00,1.000000,,2013-04-23 05:52:00,
2013-04-22 23:01:00,71.0,34.0,-100.00,SSW,206,6.0,11.0,26,0.00,,,0.00,1.000000,,2013-04-23 06:01:00,
2013-04-22 23:12:00,71.0,34.0,-100.00,SSW,206,6.0,11.0,26,0.00,,,0.00,1.000000,,2013-04-23 06:12:00,
2013-04-22 23:42:00,70.0,35.0,-100.00,NW,309,4.0,9.0,28,0.00,,,0.00,1.000000,,2013-04-23 06:42:00,
2013-04-22 23:52:00,70.0,35.0,-100.00,NW,309,4.0,9.0,28,0.00,,,0.00,1.000000,,2013-04-23 06:52:00,